Terminal Aerodrome Forecast
Issued by NWS

Home | Current Version | Previous Version | Text Only | Print | Product List | Glossary On
Versions: 1 2 3 4 5 6 7 8 9 10 11
000
FTUS45 KRIW 271700
TAFCOD
TAF
KCOD 271720Z 2718/2818 25013G20KT P6SM SCT050 BKN100 WS020/26040KT
     FM281000 24012G18KT P6SM VCSH SCT040 BKN080
      AMD LTD TO CLD VIS AND WIND=

USA.gov is the U.S. government's official web portal to all federal, state and local government web resources and services.